Ponoka, Canada
Current Conditions -  °F | °C
As of 10:00 AM on Saturday 25 Oct 2014 (Local Time) from CYQF Reporting Station
Overcast Overcast  
Wind Chill: 27°   Ceiling: 9000
Heat Index: 32°   Visibility: 15mi
Dew Point: 25°   Wind: 5mph
Humidity: 75%   Direction: 140°SE
Pressure: 29.94"   Gusts: NA
Location:  52.68°N, 113.57°W
Report Text: CYQF 251600Z 14004KT 120V220 15SM OVC090 00/M04 A2994 RMK AC8 SLP179
Loading
Personal Weather Stations






























Interactive Weather Map
Tropical Storm Tracking
New forecast layout! Learn more

10-Day Weather Forecast

Advertisements
Track Severe Weather on mobile